ASL125 ULLI-LYBE
Flight info
| Callsign | ASL125 |
|---|---|
| Flight time | N/A |
| Altitude | 38000 |
| Route | TURAL1B TURAL L870 RESMO DCT OSLIK DCT VALGA M985 ERIVA DCT URIDO DCT PEKWA DCT BOKSU M857 PODAN DCT EXIDA DCT UVERA DCT PARAK/N0438F370 DCT TISAK |
| Aircraft | A319/M-SDE3FGHIRWY/LB1 |
Departure
| Time | 2026-04-30 22:40 |
|---|---|
| Airport | Pulkovo Airport (ULLI) |
Arrival
| Time | N/A |
|---|---|
| Airport | Belgrade Nikola Tesla Airport (LYBE) |
| Time | Latitude | Longitude | Altitude | Speed | Heading |
|---|---|---|---|---|---|
| 2026-04-30 22:15 | 59.80207 | 30.26887 | 81 ft | 0 kts | 106° |
| 2026-04-30 22:31 | 59.80243 | 30.26790 | 84 ft | 3 kts | 191° |
| 2026-04-30 22:32 | 59.80247 | 30.26792 | 86 ft | 0 kts | 196° |
| 2026-04-30 22:33 | 59.80234 | 30.26784 | 85 ft | 5 kts | 196° |
| 2026-04-30 22:34 | 59.79969 | 30.26627 | 81 ft | 15 kts | 197° |
| 2026-04-30 22:35 | 59.79733 | 30.26489 | 81 ft | 16 kts | 197° |
| 2026-04-30 22:36 | 59.79459 | 30.26604 | 81 ft | 14 kts | 107° |
| 2026-04-30 22:36 | 59.79428 | 30.26810 | 82 ft | 17 kts | 107° |
| 2026-04-30 22:37 | 59.79328 | 30.27490 | 85 ft | 13 kts | 106° |
| 2026-04-30 22:37 | 59.79305 | 30.27640 | 88 ft | 12 kts | 108° |
| 2026-04-30 22:37 | 59.79249 | 30.28013 | 89 ft | 15 kts | 105° |
| 2026-04-30 22:38 | 59.79194 | 30.28217 | 89 ft | 8 kts | 156° |
| 2026-04-30 22:38 | 59.79054 | 30.28214 | 86 ft | 13 kts | 238° |
| 2026-04-30 22:39 | 59.79069 | 30.28015 | 89 ft | 18 kts | 286° |
| 2026-04-30 22:39 | 59.79663 | 30.23994 | 326 ft | 159 kts | 285° |
| 2026-04-30 22:40 | 59.80625 | 30.17487 | 1953 ft | 190 kts | 290° |
| 2026-04-30 22:41 | 59.81963 | 30.08616 | 3537 ft | 251 kts | 290° |
| 2026-04-30 22:41 | 59.82951 | 30.01871 | 5629 ft | 256 kts | 292° |
| 2026-04-30 22:42 | 59.81521 | 29.87332 | 9350 ft | 294 kts | 252° |
| 2026-04-30 22:43 | 59.79818 | 29.79709 | 10655 ft | 319 kts | 253° |
| 2026-04-30 22:43 | 59.77937 | 29.71242 | 11728 ft | 344 kts | 252° |
| 2026-04-30 22:44 | 59.75963 | 29.62450 | 13223 ft | 353 kts | 252° |
| 2026-04-30 22:45 | 59.71849 | 29.44175 | 15872 ft | 373 kts | 253° |
| 2026-04-30 22:45 | 59.69712 | 29.34738 | 17062 ft | 383 kts | 254° |
| 2026-04-30 22:46 | 59.67501 | 29.25007 | 18303 ft | 392 kts | 254° |
| 2026-04-30 22:47 | 59.62900 | 29.04965 | 20583 ft | 407 kts | 255° |
| 2026-04-30 22:47 | 59.60908 | 28.94552 | 21726 ft | 407 kts | 261° |
| 2026-04-30 22:48 | 59.59028 | 28.83925 | 22817 ft | 413 kts | 261° |
| 2026-04-30 22:49 | 59.56144 | 28.67781 | 24314 ft | 423 kts | 260° |
| 2026-04-30 22:49 | 59.53135 | 28.51197 | 25555 ft | 433 kts | 260° |
| 2026-04-30 22:50 | 59.49052 | 28.28506 | 27182 ft | 444 kts | 260° |
| 2026-04-30 22:51 | 59.46967 | 28.16973 | 27970 ft | 451 kts | 260° |
| 2026-04-30 22:51 | 59.44826 | 28.05279 | 28721 ft | 458 kts | 259° |
| 2026-04-30 22:52 | 59.43708 | 27.99389 | 29104 ft | 462 kts | 258° |
| 2026-04-30 22:52 | 59.41394 | 27.87508 | 29856 ft | 469 kts | 258° |
| 2026-04-30 22:53 | 59.39033 | 27.75481 | 30533 ft | 475 kts | 258° |
| 2026-04-30 22:53 | 59.36658 | 27.63398 | 31137 ft | 480 kts | 258° |
| 2026-04-30 22:53 | 59.35233 | 27.57391 | 31425 ft | 494 kts | 248° |
| 2026-04-30 22:54 | 59.30781 | 27.46790 | 32065 ft | 517 kts | 225° |
| 2026-04-30 22:55 | 59.21509 | 27.35723 | 33279 ft | 522 kts | 211° |
| 2026-04-30 22:55 | 59.15147 | 27.28900 | 34120 ft | 521 kts | 211° |
| 2026-04-30 22:56 | 59.08794 | 27.22130 | 34875 ft | 519 kts | 211° |
| 2026-04-30 22:56 | 58.99320 | 27.12069 | 35956 ft | 515 kts | 211° |
| 2026-04-30 22:57 | 58.93040 | 27.05445 | 36643 ft | 513 kts | 211° |
| 2026-04-30 22:57 | 58.86788 | 26.98864 | 37302 ft | 510 kts | 211° |
| 2026-04-30 22:58 | 58.80567 | 26.92338 | 37932 ft | 508 kts | 211° |
| 2026-04-30 22:59 | 58.71261 | 26.82618 | 38241 ft | 507 kts | 211° |
| 2026-04-30 22:59 | 58.61941 | 26.72979 | 38245 ft | 507 kts | 211° |